Rixford, PA (16745)

2:43 AM EDT on August 24, 2016 (GMT -0400)
Downtown Rixford | | Change Station

Elev 1621 ft 41.93 °N, 78.50 °W | Updated 6 minutes ago

Clear
Clear
51.1 °F
Feels Like 51.1 °F
N
0.0
Wind Variable Wind from WSW

Today
High -- | Low -- °F
--% Chance of Precip.
Yesterday
High -- | Low -- °F
Precip. -- in
Pressure 30.28 in
Visibility 10.0 miles
Clouds Clear
Dew Point 49 °F
Humidity 94%
Rainfall 0.00 in
Snow Depth Not available.
6:31 AM 7:59 PM
Waning Gibbous, 60% visible
METAR KBFD 240553Z AUTO 00000KT 10SM CLR 12/12 A3030 RMK AO2 SLP252 T01170117 10194 20117 58009
Pressure 30.28 in
Visibility 10.0 miles
Clouds Clear
Dew Point 49 °F
Humidity 94%
Rainfall 0.00 in
Snow Depth Not available.
6:31 AM 7:59 PM
Waning Gibbous, 60% visible
METAR KBFD 240553Z AUTO 00000KT 10SM CLR 12/12 A3030 RMK AO2 SLP252 T01170117 10194 20117 58009

10-Day Weather Forecast

Almanac

Astronomy

Aug. 24, 2016 Rise Set
Actual Time
Civil Twilight
Nautical Twilight
Astronomical Twilight
Moon
Length of Visible Light
Length of Day
Tomorrow will be .
, % of the Moon is Illuminated

Today's Extremes

State Highs State Lows

Community

WunderPhotos

Upload Photos

1,934,555 photos uploaded!

WunderBlog® & News

Nearby

Air Quality

  Air Quality AQ Index Pollutant
Not available.

Snow Depth

Station Depth Elevation

Earthquake Activity

City Distance Mag. Time & Date
Minimum magnitude displayed is 2.5.

Coastal Water Temperatures

Place Temperature

Stations

Nearby Weather Stations

Station Location Temp. Windchill Dew Point Humidity Wind Precip. Elev Updated Type
                   

Watches & Warnings

There are currently no watches in effect.